KSLB/SLB METAR and TAF weather

Enter ICAO airport designator
Station Type Date Time Source
KSLB METAR 2023/01/30 11:35 UTC NOAA

KSLB 301135Z AUTO 28008KT 10SM CLR M20/M21 A3043 RMK AO2


Station Type Date Time Source
KSLB Decoded METAR 2023/01/30 11:35 UTC NOAA

Storm Lake, IA, United States (KSLB) 42-36N 095-14W
Jan 30, 2023 - 06:35 AM EST / 2023.01.30 1135 UTC
Wind: from the W (280 degrees) at 9 MPH (8 KT):0
Visibility: 10 mile(s):0
Sky conditions: clear
Temperature: -4 F (-20 C)
Windchill: -20 F (-29 C):2
Dew Point: -5 F (-21 C)
Relative Humidity: 91%
Pressure (altimeter): 30.43 in. Hg (1030 hPa)
ob: KSLB 301135Z AUTO 28008KT 10SM CLR M20/M21 A3043 RMK AO2
cycle: 11

Station Type Date Time Source
KSLB TAF UTC NOAA

Error!

Example: see airport list